createdAt,value
2018-09-19T00:00:03.025Z,16.00
2018-09-19T00:02:31.984Z,16.00
2018-09-19T00:05:00.841Z,15.90
2018-09-19T00:07:29.784Z,15.90
2018-09-19T00:09:58.662Z,15.90
2018-09-19T00:12:27.540Z,15.90
2018-09-19T00:14:56.428Z,15.90
2018-09-19T00:17:25.320Z,15.90
2018-09-19T00:19:54.264Z,15.90
2018-09-19T00:22:23.172Z,15.80
2018-09-19T00:24:52.122Z,15.80
2018-09-19T00:27:21.058Z,15.80
2018-09-19T00:29:49.941Z,15.70
2018-09-19T00:32:18.921Z,15.70
2018-09-19T00:34:47.867Z,15.70
2018-09-19T00:37:16.773Z,15.70
2018-09-19T00:39:45.696Z,15.70
2018-09-19T00:42:14.591Z,15.60
2018-09-19T00:44:43.476Z,15.60
2018-09-19T00:47:12.410Z,15.60
2018-09-19T00:49:41.282Z,15.60
2018-09-19T00:52:10.219Z,15.50
2018-09-19T00:54:39.166Z,15.50
2018-09-19T00:57:08.061Z,15.50
2018-09-19T00:59:36.989Z,15.40
2018-09-19T01:02:05.876Z,15.50
2018-09-19T01:04:34.796Z,15.50
2018-09-19T01:07:03.687Z,15.50
2018-09-19T01:09:32.668Z,15.50
2018-09-19T01:12:01.515Z,15.50
2018-09-19T01:14:30.464Z,15.50
2018-09-19T01:16:59.357Z,15.50
2018-09-19T01:19:28.296Z,15.50
2018-09-19T01:21:57.582Z,15.40
2018-09-19T01:24:26.471Z,15.40
2018-09-19T01:26:55.324Z,15.40
2018-09-19T01:29:24.255Z,15.40
2018-09-19T01:31:53.440Z,15.30
2018-09-19T01:34:22.452Z,15.30
2018-09-19T01:36:51.325Z,15.30
2018-09-19T01:39:20.229Z,15.30
2018-09-19T01:41:49.107Z,15.20
2018-09-19T01:44:17.995Z,15.20
2018-09-19T01:46:47.006Z,15.20
2018-09-19T01:49:16.224Z,15.20
2018-09-19T01:51:45.066Z,15.10
2018-09-19T01:54:13.934Z,15.10
2018-09-19T01:56:42.820Z,15.10
2018-09-19T01:59:11.713Z,15.10
2018-09-19T02:01:40.601Z,15.10
2018-09-19T02:04:09.568Z,15.10
2018-09-19T02:06:38.468Z,15.10
2018-09-19T02:09:10.717Z,15.10
2018-09-19T02:11:39.929Z,15.00
2018-09-19T02:14:09.289Z,15.00
2018-09-19T02:16:38.761Z,15.00
2018-09-19T02:19:07.788Z,14.90
2018-09-19T02:21:36.884Z,14.90
2018-09-19T02:24:05.755Z,14.80
2018-09-19T02:26:34.653Z,14.80
2018-09-19T02:29:03.644Z,14.80
2018-09-19T02:31:33.467Z,14.80
2018-09-19T02:34:02.522Z,14.80
2018-09-19T02:36:31.376Z,14.80
2018-09-19T02:39:00.241Z,14.80
2018-09-19T02:41:29.244Z,14.80
2018-09-19T02:43:58.100Z,14.80
2018-09-19T02:46:27.188Z,14.80
2018-09-19T02:48:56.116Z,14.80
2018-09-19T02:51:25.004Z,14.80
2018-09-19T02:53:53.888Z,14.70
2018-09-19T02:56:22.769Z,14.70
2018-09-19T02:58:51.751Z,14.70
2018-09-19T03:01:20.656Z,14.60
2018-09-19T03:03:49.542Z,14.60
2018-09-19T03:06:18.424Z,14.60
2018-09-19T03:08:47.304Z,14.60
2018-09-19T03:11:16.289Z,14.60
2018-09-19T03:13:45.137Z,14.60
2018-09-19T03:16:14.078Z,14.60
2018-09-19T03:18:42.980Z,14.60
2018-09-19T03:21:11.906Z,14.60
2018-09-19T03:23:40.828Z,14.60
2018-09-19T03:26:09.740Z,14.60
2018-09-19T03:28:38.717Z,14.50
2018-09-19T03:31:08.803Z,14.50
2018-09-19T03:33:37.681Z,14.50
2018-09-19T03:36:06.612Z,14.40
2018-09-19T03:38:35.472Z,14.40
2018-09-19T03:41:04.444Z,14.40
2018-09-19T03:43:33.336Z,14.40
2018-09-19T03:46:02.289Z,14.40
2018-09-19T03:48:31.189Z,14.40
2018-09-19T03:51:00.049Z,14.40
2018-09-19T03:53:28.981Z,14.40
2018-09-19T03:55:57.832Z,14.40
2018-09-19T03:58:26.770Z,14.30
2018-09-19T04:00:55.603Z,14.30
2018-09-19T04:03:24.569Z,14.20
2018-09-19T04:05:53.448Z,14.20
2018-09-19T04:08:22.401Z,14.30
2018-09-19T04:10:51.305Z,14.30
2018-09-19T04:13:20.246Z,14.20
2018-09-19T04:15:49.135Z,14.30
2018-09-19T04:18:18.037Z,14.30
2018-09-19T04:20:46.918Z,14.30
2018-09-19T04:23:15.846Z,14.30
2018-09-19T04:25:45.023Z,14.30
2018-09-19T04:28:14.066Z,14.30
2018-09-19T04:30:42.956Z,14.30
2018-09-19T04:33:11.858Z,14.20
2018-09-19T04:35:40.792Z,14.20
2018-09-19T04:38:09.713Z,14.20
2018-09-19T04:40:38.613Z,14.20
2018-09-19T04:43:07.516Z,14.20
2018-09-19T04:45:36.340Z,14.20
2018-09-19T04:48:05.637Z,14.20
2018-09-19T04:50:34.528Z,14.20
2018-09-19T04:53:03.422Z,14.20
2018-09-19T04:55:32.381Z,14.20
2018-09-19T04:58:01.250Z,14.20
2018-09-19T05:00:30.189Z,14.20
2018-09-19T05:02:59.104Z,14.20
2018-09-19T05:05:28.084Z,14.30
2018-09-19T05:07:56.983Z,14.40
2018-09-19T05:10:25.917Z,14.60
2018-09-19T05:12:54.885Z,15.10
2018-09-19T05:15:23.826Z,15.60
2018-09-19T05:17:52.732Z,16.00
2018-09-19T05:20:21.622Z,16.10
2018-09-19T05:22:50.922Z,15.90
2018-09-19T05:25:19.851Z,15.70
2018-09-19T05:27:48.915Z,15.50
2018-09-19T05:30:17.866Z,15.30
2018-09-19T05:32:46.802Z,15.10
2018-09-19T05:35:16.137Z,15.10
2018-09-19T05:37:45.076Z,15.00
2018-09-19T05:40:14.060Z,14.90
2018-09-19T05:42:42.938Z,14.90
2018-09-19T05:45:11.861Z,14.90
2018-09-19T05:47:40.779Z,14.90
2018-09-19T05:50:09.698Z,14.90
2018-09-19T05:52:38.660Z,14.90
2018-09-19T05:55:07.554Z,14.90
2018-09-19T05:57:36.497Z,14.90
2018-09-19T06:00:05.792Z,15.00
2018-09-19T06:02:34.667Z,15.00
2018-09-19T06:05:03.751Z,15.00
2018-09-19T06:07:32.620Z,15.00
2018-09-19T06:10:01.573Z,15.10
2018-09-19T06:12:30.456Z,15.10
2018-09-19T06:14:59.393Z,15.20
2018-09-19T06:17:28.421Z,15.20
2018-09-19T06:19:57.306Z,15.30
2018-09-19T06:22:26.270Z,15.30
2018-09-19T06:24:55.159Z,15.40
2018-09-19T06:27:24.090Z,15.40
2018-09-19T06:29:53.014Z,15.50
2018-09-19T06:32:21.934Z,15.50
2018-09-19T06:34:50.879Z,15.60
2018-09-19T06:37:20.821Z,15.60
2018-09-19T06:39:49.852Z,15.60
2018-09-19T06:42:18.812Z,15.70
2018-09-19T06:44:47.731Z,15.90
2018-09-19T06:47:16.676Z,16.00
2018-09-19T06:49:45.612Z,16.10
2018-09-19T06:52:14.565Z,16.20
2018-09-19T06:54:43.480Z,16.40
2018-09-19T06:57:12.452Z,16.70
2018-09-19T06:59:41.427Z,16.70
2018-09-19T07:02:10.342Z,16.80
2018-09-19T07:04:39.288Z,16.90
2018-09-19T07:07:08.209Z,16.90
2018-09-19T07:09:37.658Z,16.90
2018-09-19T07:12:06.684Z,17.10
2018-09-19T07:14:35.581Z,17.20
2018-09-19T07:17:04.492Z,17.40
2018-09-19T07:19:33.472Z,17.60
2018-09-19T07:22:02.413Z,17.70
2018-09-19T07:24:31.449Z,17.70
2018-09-19T07:27:00.278Z,17.90
2018-09-19T07:29:29.203Z,18.00
2018-09-19T07:31:58.128Z,18.10
2018-09-19T07:34:27.062Z,18.20
2018-09-19T07:36:56.272Z,18.30
2018-09-19T07:39:25.221Z,18.40
2018-09-19T07:41:54.120Z,18.50
2018-09-19T07:44:23.020Z,18.70
2018-09-19T07:46:51.960Z,18.70
2018-09-19T07:49:20.863Z,18.80
2018-09-19T07:51:49.817Z,18.90
2018-09-19T07:54:19.918Z,19.10
2018-09-19T07:56:48.888Z,19.20
2018-09-19T07:59:17.729Z,19.40
2018-09-19T08:01:46.678Z,19.50
2018-09-19T08:04:15.545Z,19.70
2018-09-19T08:06:44.445Z,19.80
2018-09-19T08:09:13.399Z,19.80
2018-09-19T08:11:42.333Z,20.00
2018-09-19T08:14:11.268Z,20.00
2018-09-19T08:16:40.240Z,20.10
2018-09-19T08:19:09.265Z,20.20
2018-09-19T08:21:38.216Z,20.30
2018-09-19T08:24:07.170Z,20.40
2018-09-19T08:26:36.073Z,20.60
2018-09-19T08:29:05.042Z,20.80
2018-09-19T08:31:33.988Z,20.90
2018-09-19T08:34:02.916Z,21.10
2018-09-19T08:36:31.868Z,21.20
2018-09-19T08:39:01.404Z,21.20
2018-09-19T08:41:30.361Z,21.30
2018-09-19T08:43:59.224Z,21.30
2018-09-19T08:46:28.168Z,21.40
2018-09-19T08:48:57.032Z,21.40
2018-09-19T08:51:25.998Z,21.50
2018-09-19T08:53:54.886Z,21.50
2018-09-19T08:56:23.953Z,21.50
2018-09-19T08:58:52.853Z,21.60
2018-09-19T09:01:21.844Z,21.60
2018-09-19T09:03:50.885Z,21.80
2018-09-19T09:06:19.800Z,22.10
2018-09-19T09:08:48.696Z,22.40
2018-09-19T09:11:17.735Z,22.60
2018-09-19T09:13:46.782Z,22.90
2018-09-19T09:16:15.718Z,23.20
2018-09-19T09:18:44.705Z,23.50
2018-09-19T09:21:13.677Z,23.70
2018-09-19T09:23:42.663Z,23.90
2018-09-19T09:26:12.286Z,24.00
2018-09-19T09:28:41.228Z,24.20
2018-09-19T09:31:10.230Z,24.30
2018-09-19T09:33:39.221Z,24.20
2018-09-19T09:36:08.156Z,24.10
2018-09-19T09:38:37.990Z,24.10
2018-09-19T09:41:07.294Z,24.10
2018-09-19T09:43:36.366Z,24.20
2018-09-19T09:46:05.311Z,24.30
2018-09-19T09:48:34.210Z,24.40
2018-09-19T09:51:03.280Z,24.50
2018-09-19T09:56:01.798Z,24.80
2018-09-19T09:58:30.798Z,25.00
2018-09-19T10:00:59.933Z,25.00
2018-09-19T10:03:28.832Z,25.10
2018-09-19T10:05:57.738Z,25.30
2018-09-19T10:08:26.857Z,25.50
2018-09-19T10:10:55.793Z,25.80
2018-09-19T10:13:24.734Z,25.90
2018-09-19T10:15:53.610Z,26.00
2018-09-19T10:18:22.549Z,26.00
2018-09-19T10:20:51.433Z,26.20
2018-09-19T10:23:20.406Z,26.50
2018-09-19T10:25:49.316Z,26.90
2018-09-19T10:28:18.256Z,27.30
2018-09-19T10:30:47.257Z,27.60
2018-09-19T10:33:16.173Z,27.70
2018-09-19T10:35:45.058Z,27.90
2018-09-19T10:38:13.990Z,28.10
2018-09-19T10:40:42.977Z,28.30
2018-09-19T10:43:11.872Z,28.30
2018-09-19T10:45:40.832Z,28.20
2018-09-19T10:48:09.788Z,28.10
2018-09-19T10:50:38.742Z,28.00
2018-09-19T10:53:07.723Z,28.00
2018-09-19T10:55:36.713Z,28.10
2018-09-19T10:58:05.788Z,28.20
2018-09-19T11:00:34.645Z,28.50
2018-09-19T11:03:03.982Z,28.70
2018-09-19T11:05:32.861Z,28.70
2018-09-19T11:08:01.782Z,28.70
2018-09-19T11:10:30.741Z,28.50
2018-09-19T11:12:59.672Z,28.50
2018-09-19T11:15:28.666Z,28.70
2018-09-19T11:17:57.638Z,29.10
2018-09-19T11:20:26.668Z,29.40
2018-09-19T11:22:55.602Z,29.80
2018-09-19T11:25:24.507Z,30.20
2018-09-19T11:27:53.476Z,30.40
2018-09-19T11:30:22.772Z,30.70
2018-09-19T11:32:51.739Z,30.90
2018-09-19T11:35:21.018Z,31.00
2018-09-19T11:37:49.954Z,31.00
2018-09-19T11:40:18.921Z,31.20
2018-09-19T11:42:47.921Z,31.20
2018-09-19T11:45:16.833Z,30.90
2018-09-19T11:47:45.721Z,30.40
2018-09-19T11:50:14.633Z,30.00
2018-09-19T11:52:43.615Z,29.60
2018-09-19T11:55:13.020Z,29.20
2018-09-19T11:57:42.036Z,29.00
2018-09-19T12:00:11.023Z,28.90
2018-09-19T12:02:39.931Z,28.80
2018-09-19T12:05:08.899Z,28.70
2018-09-19T12:07:37.792Z,28.60
2018-09-19T12:10:06.721Z,28.70
2018-09-19T12:12:35.632Z,28.70
2018-09-19T12:15:04.678Z,28.60
2018-09-19T12:17:33.944Z,28.50
2018-09-19T12:20:02.792Z,28.40
2018-09-19T12:22:31.737Z,28.40
2018-09-19T12:25:00.653Z,28.70
2018-09-19T12:27:29.508Z,28.80
2018-09-19T12:29:58.425Z,28.80
2018-09-19T12:32:27.281Z,28.90
2018-09-19T12:34:56.296Z,28.90
2018-09-19T12:37:25.892Z,29.30
2018-09-19T12:39:54.807Z,29.60
2018-09-19T12:42:23.924Z,29.30
2018-09-19T12:44:52.824Z,29.60
2018-09-19T12:47:21.729Z,30.00
2018-09-19T12:49:51.196Z,30.30
2018-09-19T12:52:20.088Z,30.40
2018-09-19T12:54:49.063Z,30.60
2018-09-19T12:57:17.964Z,30.80
2018-09-19T12:59:46.859Z,31.00
2018-09-19T13:02:15.840Z,30.90
2018-09-19T13:04:44.745Z,30.70
2018-09-19T13:07:13.644Z,30.40
2018-09-19T13:09:42.533Z,30.00
2018-09-19T13:12:11.654Z,29.50
2018-09-19T13:14:40.529Z,29.10
2018-09-19T13:17:09.502Z,28.80
2018-09-19T13:19:38.445Z,28.70
2018-09-19T13:22:07.464Z,28.40
2018-09-19T13:24:36.425Z,28.30
2018-09-19T13:27:05.301Z,28.20
2018-09-19T13:29:34.197Z,28.20
2018-09-19T13:32:03.092Z,28.20
2018-09-19T13:34:31.992Z,28.20
2018-09-19T13:37:00.964Z,28.20
2018-09-19T13:39:29.833Z,28.20
2018-09-19T13:41:58.729Z,28.20
2018-09-19T13:44:27.606Z,28.20
2018-09-19T13:46:56.504Z,28.10
2018-09-19T13:49:30.900Z,28.00
2018-09-19T13:51:59.784Z,28.10
2018-09-19T13:54:28.665Z,28.10
2018-09-19T13:56:57.576Z,28.60
2018-09-19T13:59:31.796Z,29.30
2018-09-19T14:02:00.689Z,30.30
2018-09-19T14:04:29.617Z,31.10
2018-09-19T14:06:58.520Z,31.80
2018-09-19T14:09:27.457Z,32.10
2018-09-19T14:11:56.309Z,31.80
2018-09-19T14:14:25.300Z,31.90
2018-09-19T14:16:54.222Z,31.80
2018-09-19T14:19:23.141Z,31.70
2018-09-19T14:21:52.066Z,31.30
2018-09-19T14:24:21.027Z,30.80
2018-09-19T14:26:50.834Z,32.10
2018-09-19T14:29:19.768Z,33.60
2018-09-19T14:31:48.661Z,34.70
2018-09-19T14:34:17.633Z,34.10
2018-09-19T14:36:46.603Z,32.80
2018-09-19T14:39:15.536Z,31.70
2018-09-19T14:41:44.420Z,30.80
2018-09-19T14:44:13.333Z,30.40
2018-09-19T14:46:42.632Z,30.80
2018-09-19T14:49:11.538Z,32.00
2018-09-19T14:51:40.485Z,33.70
2018-09-19T14:54:09.459Z,35.00
2018-09-19T14:56:38.342Z,35.90
2018-09-19T14:59:07.846Z,36.40
2018-09-19T15:01:36.723Z,36.10
2018-09-19T15:04:05.701Z,34.40
2018-09-19T15:06:34.616Z,33.20
2018-09-19T15:09:03.721Z,31.90
2018-09-19T15:11:32.636Z,30.70
2018-09-19T15:14:01.558Z,30.00
2018-09-19T15:16:30.463Z,30.50
2018-09-19T15:18:59.386Z,30.60
2018-09-19T15:21:28.266Z,29.90
2018-09-19T15:23:57.201Z,29.30
2018-09-19T15:26:26.061Z,28.80
2018-09-19T15:28:54.952Z,28.30
2018-09-19T15:31:23.853Z,28.00
2018-09-19T15:33:52.749Z,27.80
2018-09-19T15:36:21.801Z,27.70
2018-09-19T15:38:50.769Z,28.60
2018-09-19T15:41:19.662Z,30.50
2018-09-19T15:43:48.569Z,32.10
2018-09-19T15:46:17.478Z,33.00
2018-09-19T15:48:46.520Z,32.30
2018-09-19T15:51:15.481Z,31.10
2018-09-19T15:53:44.365Z,29.90
2018-09-19T15:56:13.281Z,28.90
2018-09-19T15:58:42.129Z,28.20
2018-09-19T16:01:10.978Z,27.60
2018-09-19T16:03:40.005Z,27.20
2018-09-19T16:06:09.059Z,26.80
2018-09-19T16:08:37.918Z,26.50
2018-09-19T16:11:06.789Z,26.20
2018-09-19T16:13:35.812Z,25.80
2018-09-19T16:16:04.705Z,25.50
2018-09-19T16:18:33.597Z,25.20
2018-09-19T16:21:02.684Z,24.90
2018-09-19T16:23:31.655Z,24.60
2018-09-19T16:26:00.534Z,24.40
2018-09-19T16:28:29.427Z,24.30
2018-09-19T16:30:58.314Z,24.20
2018-09-19T16:33:27.227Z,24.10
2018-09-19T16:35:56.080Z,23.90
2018-09-19T16:38:24.952Z,23.70
2018-09-19T16:40:53.881Z,23.60
2018-09-19T16:43:22.839Z,23.50
2018-09-19T16:45:51.705Z,23.40
2018-09-19T16:48:20.612Z,23.30
2018-09-19T16:50:49.439Z,23.20
2018-09-19T16:53:18.438Z,23.20
2018-09-19T16:55:47.369Z,23.10
2018-09-19T16:58:16.280Z,23.10
2018-09-19T17:00:45.137Z,23.10
2018-09-19T17:03:14.499Z,23.00
2018-09-19T17:05:43.475Z,23.00
2018-09-19T17:08:12.652Z,23.00
2018-09-19T17:10:41.898Z,23.00
2018-09-19T17:13:11.140Z,22.90
2018-09-19T17:15:40.053Z,22.70
2018-09-19T17:18:08.996Z,22.60
2018-09-19T17:20:37.900Z,22.40
2018-09-19T17:23:21.469Z,22.30
2018-09-19T17:25:50.456Z,22.20
2018-09-19T17:28:19.369Z,22.10
2018-09-19T17:30:48.369Z,21.90
2018-09-19T17:33:17.362Z,21.70
2018-09-19T17:35:46.285Z,21.60
2018-09-19T17:38:15.209Z,21.60
2018-09-19T17:40:44.158Z,21.60
2018-09-19T17:43:13.188Z,21.60
2018-09-19T17:45:42.120Z,21.50
2018-09-19T17:48:11.070Z,21.50
2018-09-19T17:50:40.005Z,21.50
2018-09-19T17:53:08.899Z,21.40
2018-09-19T17:55:37.848Z,21.30
2018-09-19T17:58:06.784Z,21.40
2018-09-19T18:00:35.754Z,21.30
2018-09-19T18:03:04.969Z,21.40
2018-09-19T18:05:33.958Z,21.20
2018-09-19T18:08:03.439Z,21.10
2018-09-19T18:10:32.529Z,21.00
2018-09-19T18:13:01.508Z,20.90
2018-09-19T18:15:30.524Z,20.80
2018-09-19T18:17:59.655Z,20.60
2018-09-19T18:20:28.796Z,20.50
2018-09-19T18:22:57.744Z,20.30
2018-09-19T18:25:26.671Z,20.20
2018-09-19T18:27:55.556Z,20.10
2018-09-19T18:30:24.489Z,20.10
2018-09-19T18:32:53.348Z,20.00
2018-09-19T18:35:22.344Z,20.00
2018-09-19T18:37:51.464Z,19.90
2018-09-19T18:40:20.402Z,19.90
2018-09-19T18:42:49.265Z,19.80
2018-09-19T18:45:19.633Z,19.80
2018-09-19T18:47:49.072Z,19.70
2018-09-19T18:50:18.219Z,19.80
2018-09-19T18:52:47.150Z,19.80
2018-09-19T18:55:16.167Z,19.70
2018-09-19T18:57:45.082Z,19.60
2018-09-19T19:00:14.034Z,19.70
2018-09-19T19:02:43.234Z,19.60
2018-09-19T19:05:12.173Z,19.60
2018-09-19T19:07:41.142Z,19.50
2018-09-19T19:10:10.747Z,19.40
2018-09-19T19:12:39.689Z,19.40
2018-09-19T19:15:08.601Z,19.30
2018-09-19T19:17:37.597Z,19.30
2018-09-19T19:20:07.559Z,19.20
2018-09-19T19:22:36.487Z,19.20
2018-09-19T19:25:05.600Z,19.10
2018-09-19T19:27:34.903Z,19.00
2018-09-19T19:30:04.176Z,19.20
2018-09-19T19:32:33.090Z,19.40
2018-09-19T19:35:01.992Z,19.40
2018-09-19T19:37:30.995Z,19.20
2018-09-19T19:40:00.013Z,19.10
2018-09-19T19:42:28.986Z,19.00
2018-09-19T19:44:57.881Z,18.80
2018-09-19T19:47:27.092Z,18.70
2018-09-19T19:49:56.232Z,18.70
2018-09-19T19:52:25.509Z,18.70
2018-09-19T19:54:54.456Z,18.70
2018-09-19T19:57:23.466Z,18.60
2018-09-19T19:59:52.696Z,18.60
2018-09-19T20:02:21.707Z,18.60
2018-09-19T20:04:50.724Z,18.60
2018-09-19T20:07:19.601Z,18.80
2018-09-19T20:09:48.530Z,18.80
2018-09-19T20:12:17.450Z,18.70
2018-09-19T20:14:46.378Z,18.70
2018-09-19T20:17:15.474Z,18.60
2018-09-19T20:19:44.445Z,18.60
2018-09-19T20:22:13.389Z,18.50
2018-09-19T20:24:42.272Z,18.50
2018-09-19T20:27:11.189Z,18.90
2018-09-19T20:29:40.172Z,19.20
2018-09-19T20:32:09.029Z,19.10
2018-09-19T20:34:37.978Z,19.00
2018-09-19T20:37:07.248Z,18.80
2018-09-19T20:39:36.171Z,18.60
2018-09-19T20:42:05.096Z,18.50
2018-09-19T20:44:34.088Z,18.30
2018-09-19T20:47:03.053Z,18.20
2018-09-19T20:49:32.005Z,18.30
2018-09-19T20:52:00.898Z,18.20
2018-09-19T20:54:29.869Z,18.10
2018-09-19T20:56:58.744Z,18.00
2018-09-19T20:59:27.636Z,18.00
2018-09-19T21:01:56.563Z,18.00
2018-09-19T21:04:25.562Z,18.00
2018-09-19T21:06:54.561Z,17.90
2018-09-19T21:09:23.476Z,17.90
2018-09-19T21:11:52.527Z,17.80
2018-09-19T21:14:21.570Z,17.80
2018-09-19T21:16:50.454Z,17.80
2018-09-19T21:19:19.518Z,17.80
2018-09-19T21:21:48.428Z,17.70
2018-09-19T21:24:17.616Z,17.60
2018-09-19T21:26:46.528Z,17.60
2018-09-19T21:29:15.392Z,17.60
2018-09-19T21:31:44.321Z,17.50
2018-09-19T21:34:13.277Z,17.40
2018-09-19T21:36:42.460Z,17.40
2018-09-19T21:39:11.909Z,17.40
2018-09-19T21:41:40.846Z,17.40
2018-09-19T21:44:09.759Z,17.40
2018-09-19T21:46:38.622Z,17.40
2018-09-19T21:49:07.649Z,17.30
2018-09-19T21:51:36.475Z,17.30
2018-09-19T21:54:05.400Z,17.20
2018-09-19T21:56:34.364Z,17.20
2018-09-19T21:59:03.257Z,17.10
2018-09-19T22:01:37.241Z,17.10
2018-09-19T22:04:06.181Z,17.10
2018-09-19T22:06:35.070Z,17.10
2018-09-19T22:09:05.455Z,17.10
2018-09-19T22:11:34.340Z,17.10
2018-09-19T22:14:03.214Z,17.10
2018-09-19T22:16:32.219Z,17.00
2018-09-19T22:19:01.116Z,16.90
2018-09-19T22:21:30.134Z,16.90
2018-09-19T22:23:59.017Z,16.80
2018-09-19T22:26:27.944Z,16.80
2018-09-19T22:28:56.910Z,16.80
2018-09-19T22:31:25.981Z,16.80
2018-09-19T22:33:54.867Z,16.80
2018-09-19T22:36:23.864Z,16.70
2018-09-19T22:38:52.707Z,16.70
2018-09-19T22:41:21.992Z,16.70
2018-09-19T22:43:51.057Z,16.60
2018-09-19T22:46:20.036Z,16.60
2018-09-19T22:48:49.236Z,16.60
2018-09-19T22:51:18.278Z,16.50
2018-09-19T22:53:47.224Z,16.50
2018-09-19T22:56:16.112Z,16.40
2018-09-19T22:58:44.968Z,16.40
2018-09-19T23:01:13.881Z,16.40
2018-09-19T23:03:42.840Z,16.30
2018-09-19T23:06:11.736Z,16.30
2018-09-19T23:08:40.591Z,16.30
2018-09-19T23:11:09.496Z,16.30
2018-09-19T23:13:38.352Z,16.30
2018-09-19T23:16:07.649Z,16.20
2018-09-19T23:18:36.500Z,16.20
2018-09-19T23:21:05.392Z,16.20
2018-09-19T23:23:34.293Z,16.20
2018-09-19T23:26:03.204Z,16.20
2018-09-19T23:28:32.126Z,16.20
2018-09-19T23:31:01.032Z,16.10
2018-09-19T23:33:30.040Z,16.10
2018-09-19T23:35:58.953Z,16.10
2018-09-19T23:38:27.801Z,16.10
2018-09-19T23:40:56.704Z,16.10
2018-09-19T23:43:25.571Z,16.10
2018-09-19T23:45:54.558Z,16.00
2018-09-19T23:48:23.459Z,16.00
2018-09-19T23:50:52.344Z,15.90
2018-09-19T23:53:21.577Z,15.90
2018-09-19T23:55:50.513Z,15.90
2018-09-19T23:58:19.398Z,15.90
